Time,TemperatureF,DewpointF,PressureIn,WindDirection,WindDirectionDegrees,WindSpeedMPH,WindSpeedGustMPH,Humidity,HourlyPrecipIn,Conditions,Clouds,dailyrainin,SoftwareType,DateUTC
2013-04-18 00:02:00,45.5,-99.9,30.23,East,100,0.0,0.0,-999,0.00,,,-99.99,perl,2013-04-18 04:02:00,
2013-04-18 00:05:00,45.5,-99.9,30.23,East,86,0.0,0.0,-999,0.00,,,-99.99,perl,2013-04-18 04:05:00,
2013-04-18 00:06:00,45.5,-99.9,30.23,East,100,0.0,0.0,-999,0.00,,,-99.99,perl,2013-04-18 04:06:00,
2013-04-18 00:07:00,45.5,-99.9,30.23,East,98,0.0,0.0,-999,0.00,,,-99.99,perl,2013-04-18 04:07:00,
2013-04-18 00:09:00,45.5,-99.9,30.23,East,90,0.0,0.0,-999,0.00,,,-99.99,perl,2013-04-18 04:09:00,
2013-04-18 00:14:00,45.3,-99.9,30.20,ESE,102,0.0,0.0,-999,0.00,,,-99.99,perl,2013-04-18 04:14:00,
2013-04-18 00:19:00,45.1,-99.9,30.20,ESE,105,0.0,0.0,-999,0.00,,,-99.99,perl,2013-04-18 04:19:00,
2013-04-18 00:24:00,45.1,-99.9,30.20,ESE,104,4.0,4.0,-999,0.00,,,-99.99,perl,2013-04-18 04:24:00,
2013-04-18 00:29:00,45.1,-99.9,30.20,ESE,117,3.6,4.0,-999,0.00,,,-99.99,perl,2013-04-18 04:29:00,
2013-04-18 00:34:00,45.1,-99.9,30.20,East,97,4.2,7.6,-999,0.00,,,-99.99,perl,2013-04-18 04:34:00,
2013-04-18 00:39:00,45.1,-99.9,30.20,ESE,104,0.0,0.0,-999,0.00,,,-99.99,perl,2013-04-18 04:39:00,
2013-04-18 00:44:00,45.1,-99.9,30.20,East,92,2.1,3.6,-999,0.00,,,-99.99,perl,2013-04-18 04:44:00,
2013-04-18 00:49:00,45.3,-99.9,30.20,ENE,78,2.2,4.0,-999,0.00,,,-99.99,perl,2013-04-18 04:49:00,
2013-04-18 00:54:00,45.3,-99.9,30.20,ESE,104,0.0,0.0,-999,0.00,,,-99.99,perl,2013-04-18 04:54:00,
2013-04-18 00:59:00,45.3,-99.9,30.20,ESE,105,0.0,0.0,-999,0.00,,,-99.99,perl,2013-04-18 04:59:00,
2013-04-18 01:04:00,45.3,-99.9,30.20,ESE,105,0.0,0.0,-999,0.00,,,-99.99,perl,2013-04-18 05:04:00,
2013-04-18 01:09:00,45.3,-99.9,30.20,ESE,105,0.0,0.0,-999,0.00,,,-99.99,perl,2013-04-18 05:09:00,
2013-04-18 01:14:00,45.3,-99.9,30.20,East,85,0.0,0.0,-999,0.00,,,-99.99,perl,2013-04-18 05:14:00,
2013-04-18 01:19:00,45.5,-99.9,30.20,ENE,75,3.8,3.8,-999,0.00,,,-99.99,perl,2013-04-18 05:19:00,
2013-04-18 01:25:00,45.5,-99.9,30.20,East,90,0.0,4.9,-999,0.00,,,-99.99,perl,2013-04-18 05:25:00,
2013-04-18 01:30:00,45.5,-99.9,30.17,ESE,106,3.9,4.0,-999,0.00,,,-99.99,perl,2013-04-18 05:30:00,
2013-04-18 01:35:00,45.3,-99.9,30.17,SE,135,0.0,0.0,-999,0.00,,,-99.99,perl,2013-04-18 05:35:00,
2013-04-18 01:41:00,45.3,-99.9,30.17,ESE,113,0.0,0.0,-999,0.00,,,-99.99,perl,2013-04-18 05:41:00,
2013-04-18 01:46:00,45.1,-99.9,30.20,East,87,0.0,0.0,-999,0.00,,,-99.99,perl,2013-04-18 05:46:00,
2013-04-18 01:51:00,45.1,-99.9,30.20,East,99,0.0,0.0,-999,0.00,,,-99.99,perl,2013-04-18 05:51:00,
2013-04-18 01:56:00,45.1,-99.9,30.20,East,90,0.0,0.0,-999,0.00,,,-99.99,perl,2013-04-18 05:56:00,
2013-04-18 02:01:00,45.1,-99.9,30.17,ESE,108,0.0,0.0,-999,0.00,,,-99.99,perl,2013-04-18 06:01:00,
2013-04-18 02:06:00,45.0,-99.9,30.17,East,98,0.0,0.0,-999,0.00,,,-99.99,perl,2013-04-18 06:06:00,
2013-04-18 02:11:00,44.8,-99.9,30.17,ESE,113,3.6,4.0,-999,0.00,,,-99.99,perl,2013-04-18 06:11:00,
2013-04-18 02:16:00,45.0,-99.9,30.14,East,93,2.7,8.1,-999,0.00,,,-99.99,perl,2013-04-18 06:16:00,
2013-04-18 02:21:00,45.0,-99.9,30.14,ESE,108,0.0,0.0,-999,0.00,,,-99.99,perl,2013-04-18 06:21:00,
2013-04-18 02:26:00,44.8,-99.9,30.14,ESE,117,3.1,3.6,-999,0.00,,,-99.99,perl,2013-04-18 06:26:00,
2013-04-18 02:31:00,44.8,-99.9,30.14,ESE,118,0.0,0.0,-999,0.00,,,-99.99,perl,2013-04-18 06:31:00,
2013-04-18 02:36:00,45.0,-99.9,30.14,ESE,108,3.5,6.3,-999,0.00,,,-99.99,perl,2013-04-18 06:36:00,
2013-04-18 02:41:00,45.0,-99.9,30.14,ESE,103,2.7,4.9,-999,0.00,,,-99.99,perl,2013-04-18 06:41:00,
2013-04-18 02:46:00,45.0,-99.9,30.11,ESE,107,2.7,3.1,-999,0.00,,,-99.99,perl,2013-04-18 06:46:00,
2013-04-18 02:52:00,45.0,-99.9,30.11,ESE,111,2.2,3.1,-999,0.00,,,-99.99,perl,2013-04-18 06:52:00,
2013-04-18 02:57:00,45.0,-99.9,30.11,ESE,105,3.9,4.0,-999,0.00,,,-99.99,perl,2013-04-18 06:57:00,
2013-04-18 03:02:00,45.1,-99.9,30.11,East,80,0.0,4.0,-999,0.00,,,-99.99,perl,2013-04-18 07:02:00,
2013-04-18 03:07:00,45.1,-99.9,30.11,East,96,2.2,2.7,-999,0.00,,,-99.99,perl,2013-04-18 07:07:00,
2013-04-18 03:12:00,45.3,-99.9,30.11,NE,56,0.0,0.0,-999,0.00,,,-99.99,perl,2013-04-18 07:12:00,
2013-04-18 03:17:00,45.5,-99.9,30.11,East,93,0.0,0.0,-999,0.00,,,-99.99,perl,2013-04-18 07:17:00,
2013-04-18 03:22:00,45.5,-99.9,30.11,East,99,2.1,4.0,-999,0.00,,,-99.99,perl,2013-04-18 07:22:00,
2013-04-18 03:27:00,45.7,-99.9,30.11,ESE,103,3.6,3.6,-999,0.00,,,-99.99,perl,2013-04-18 07:27:00,
2013-04-18 03:32:00,45.9,-99.9,30.08,ENE,77,2.4,4.9,-999,0.00,,,-99.99,perl,2013-04-18 07:32:00,
2013-04-18 03:37:00,46.0,-99.9,30.08,East,93,2.2,3.6,-999,0.00,,,-99.99,perl,2013-04-18 07:37:00,
2013-04-18 03:42:00,46.0,-99.9,30.08,East,88,0.0,0.0,-999,0.00,,,-99.99,perl,2013-04-18 07:42:00,
2013-04-18 03:47:00,46.2,-99.9,30.08,NE,39,3.6,4.0,-999,0.00,,,-99.99,perl,2013-04-18 07:47:00,
2013-04-18 03:52:00,46.4,-99.9,30.08,ENE,73,0.0,0.0,-999,0.00,,,-99.99,perl,2013-04-18 07:52:00,
2013-04-18 03:57:00,46.4,-99.9,30.08,East,94,2.8,3.1,-999,0.00,,,-99.99,perl,2013-04-18 07:57:00,
2013-04-18 04:02:00,46.4,-99.9,30.08,East,87,2.7,3.1,-999,0.00,,,-99.99,perl,2013-04-18 08:02:00,
2013-04-18 04:07:00,46.6,-99.9,30.08,East,79,3.0,3.1,-999,0.00,,,-99.99,perl,2013-04-18 08:07:00,
2013-04-18 04:12:00,46.6,-99.9,30.08,ENE,62,0.0,2.2,-999,0.00,,,-99.99,perl,2013-04-18 08:12:00,
2013-04-18 04:17:00,46.6,-99.9,30.08,East,86,0.0,0.0,-999,0.00,,,-99.99,perl,2013-04-18 08:17:00,
2013-04-18 04:22:00,46.8,-99.9,30.08,East,98,3.1,5.8,-999,0.00,,,-99.99,perl,2013-04-18 08:22:00,
2013-04-18 04:27:00,46.8,-99.9,30.08,East,92,0.0,2.7,-999,0.00,,,-99.99,perl,2013-04-18 08:27:00,
2013-04-18 04:32:00,46.8,-99.9,30.06,SSE,149,0.6,0.0,-999,0.00,,,-99.99,perl,2013-04-18 08:32:00,
2013-04-18 04:37:00,46.9,-99.9,30.06,East,84,0.0,2.7,-999,0.00,,,-99.99,perl,2013-04-18 08:37:00,
2013-04-18 04:43:00,47.1,-99.9,30.06,ENE,69,2.7,2.7,-999,0.00,,,-99.99,perl,2013-04-18 08:43:00,
2013-04-18 04:48:00,47.1,-99.9,30.06,NNE,25,0.0,0.0,-999,0.00,,,-99.99,perl,2013-04-18 08:48:00,
2013-04-18 04:53:00,47.3,-99.9,30.06,ENE,76,2.4,2.7,-999,0.00,,,-99.99,perl,2013-04-18 08:53:00,
2013-04-18 04:58:00,47.3,-99.9,30.06,East,97,2.2,4.0,-999,0.00,,,-99.99,perl,2013-04-18 08:58:00,
2013-04-18 05:03:00,47.3,-99.9,30.06,SE,126,4.0,5.4,-999,0.00,,,-99.99,perl,2013-04-18 09:03:00,
2013-04-18 05:08:00,47.3,-99.9,30.06,East,81,5.4,6.3,-999,0.00,,,-99.99,perl,2013-04-18 09:08:00,
2013-04-18 05:13:00,47.5,-99.9,30.06,East,86,3.6,5.4,-999,0.00,,,-99.99,perl,2013-04-18 09:13:00,
2013-04-18 05:18:00,47.5,-99.9,30.06,ESE,102,4.0,5.8,-999,0.00,,,-99.99,perl,2013-04-18 09:18:00,
2013-04-18 05:23:00,47.5,-99.9,30.06,ESE,103,6.3,9.6,-999,0.00,,,-99.99,perl,2013-04-18 09:23:00,
2013-04-18 05:28:00,47.5,-99.9,30.06,ESE,106,4.3,6.3,-999,0.00,,,-99.99,perl,2013-04-18 09:28:00,
2013-04-18 05:33:00,47.5,-99.9,30.06,East,100,4.9,8.7,-999,0.00,,,-99.99,perl,2013-04-18 09:33:00,
2013-04-18 05:38:00,47.5,-99.9,30.06,SSE,153,3.5,5.8,-999,0.00,,,-99.99,perl,2013-04-18 09:38:00,
2013-04-18 05:44:00,47.7,-99.9,30.03,East,96,4.5,5.4,-999,0.00,,,-99.99,perl,2013-04-18 09:44:00,
2013-04-18 05:49:00,47.7,-99.9,30.03,East,81,3.4,5.4,-999,0.00,,,-99.99,perl,2013-04-18 09:49:00,
2013-04-18 05:54:00,47.5,-99.9,30.03,East,91,4.9,8.1,-999,0.00,,,-99.99,perl,2013-04-18 09:54:00,
2013-04-18 05:59:00,47.5,-99.9,30.03,East,84,3.0,4.0,-999,0.00,,,-99.99,perl,2013-04-18 09:59:00,
2013-04-18 06:04:00,47.5,-99.9,30.03,East,90,4.5,5.8,-999,0.00,,,-99.99,perl,2013-04-18 10:04:00,
2013-04-18 06:09:00,47.5,-99.9,30.03,ESE,110,4.9,6.3,-999,0.00,,,-99.99,perl,2013-04-18 10:09:00,
2013-04-18 06:14:00,47.3,-99.9,30.03,East,94,4.9,6.3,-999,0.00,,,-99.99,perl,2013-04-18 10:14:00,
2013-04-18 06:19:00,47.1,-99.9,30.03,ESE,106,4.0,4.0,-999,0.00,,,-99.99,perl,2013-04-18 10:19:00,
2013-04-18 06:24:00,47.1,-99.9,30.03,East,99,4.5,4.9,-999,0.00,,,-99.99,perl,2013-04-18 10:24:00,
2013-04-18 06:29:00,46.9,-99.9,30.03,ESE,102,3.6,4.9,-999,0.00,,,-99.99,perl,2013-04-18 10:29:00,
2013-04-18 06:34:00,46.9,-99.9,30.03,ESE,103,5.3,8.1,-999,0.00,,,-99.99,perl,2013-04-18 10:34:00,
2013-04-18 06:39:00,46.9,32.0,30.03,East,101,4.0,5.4,56,0.00,,,-99.99,perl,2013-04-18 10:39:00,
2013-04-18 06:44:00,46.9,32.0,30.00,East,101,3.6,4.9,56,0.00,,,-99.99,perl,2013-04-18 10:44:00,
2013-04-18 06:49:00,47.1,32.0,30.00,ESE,118,4.9,5.4,56,0.00,,,-99.99,perl,2013-04-18 10:49:00,
2013-04-18 06:54:00,47.3,32.0,30.00,SE,124,4.0,5.4,55,0.00,,,-99.99,perl,2013-04-18 10:54:00,
2013-04-18 06:59:00,47.3,33.8,30.00,East,101,3.8,5.8,59,0.00,,,-99.99,perl,2013-04-18 10:59:00,
2013-04-18 07:04:00,47.5,33.8,30.00,East,90,4.0,4.9,58,0.00,,,-99.99,perl,2013-04-18 11:04:00,
2013-04-18 07:09:00,47.8,33.8,30.00,ESE,104,3.9,4.9,58,0.00,,,-99.99,perl,2013-04-18 11:09:00,
2013-04-18 07:14:00,48.2,32.0,30.00,ESE,118,0.0,6.3,53,0.00,,,-99.99,perl,2013-04-18 11:14:00,
2013-04-18 07:19:00,48.7,32.0,30.00,SE,129,2.2,4.5,53,0.00,,,-99.99,perl,2013-04-18 11:19:00,
2013-04-18 07:24:00,49.1,33.8,30.00,SE,135,2.7,4.0,55,0.00,,,-99.99,perl,2013-04-18 11:24:00,
2013-04-18 07:29:00,49.3,33.8,30.00,ESE,114,4.5,4.5,55,0.00,,,-99.99,perl,2013-04-18 11:29:00,
2013-04-18 07:34:00,49.6,33.8,30.00,ESE,105,3.5,3.6,54,0.00,,,-99.99,perl,2013-04-18 11:34:00,
2013-04-18 07:39:00,49.8,33.8,30.00,ESE,118,4.0,5.4,54,0.00,,,-99.99,perl,2013-04-18 11:39:00,
2013-04-18 07:44:00,50.0,33.8,30.00,ESE,112,3.0,5.8,53,0.00,,,-99.99,perl,2013-04-18 11:44:00,
2013-04-18 07:49:00,50.0,35.6,30.00,East,93,0.0,0.0,58,0.00,,,-99.99,perl,2013-04-18 11:49:00,
2013-04-18 07:54:00,50.2,35.6,30.00,ENE,76,0.0,0.0,57,0.00,,,-99.99,perl,2013-04-18 11:54:00,
2013-04-18 07:59:00,50.2,35.6,30.00,ESE,114,0.0,0.0,57,0.00,,,-99.99,perl,2013-04-18 11:59:00,
2013-04-18 08:04:00,50.4,35.6,30.00,East,101,2.2,3.1,57,0.00,,,-99.99,perl,2013-04-18 12:04:00,
2013-04-18 08:09:00,50.5,35.6,30.00,East,84,0.0,0.0,57,0.00,,,-99.99,perl,2013-04-18 12:09:00,
2013-04-18 08:14:00,50.7,35.6,30.00,ESE,104,0.0,0.0,56,0.00,,,-99.99,perl,2013-04-18 12:14:00,
2013-04-18 08:19:00,51.1,37.4,30.00,ESE,117,0.0,3.6,59,0.00,,,-99.99,perl,2013-04-18 12:19:00,
2013-04-18 08:25:00,51.6,37.4,30.00,ESE,107,4.5,4.5,58,0.00,,,-99.99,perl,2013-04-18 12:25:00,
2013-04-18 08:30:00,51.8,37.4,29.97,ESE,114,0.7,3.6,58,0.00,,,-99.99,perl,2013-04-18 12:30:00,
2013-04-18 08:36:00,52.2,37.4,29.97,East,97,3.1,4.0,57,0.00,,,-99.99,perl,2013-04-18 12:36:00,
2013-04-18 08:41:00,52.5,37.4,29.97,ESE,119,3.1,4.0,56,0.00,,,-99.99,perl,2013-04-18 12:41:00,
2013-04-18 08:46:00,52.9,39.2,29.97,ESE,112,3.1,3.1,60,0.00,,,-99.99,perl,2013-04-18 12:46:00,
2013-04-18 08:51:00,53.1,39.2,29.97,ESE,109,2.7,3.6,59,0.00,,,-99.99,perl,2013-04-18 12:51:00,
2013-04-18 08:56:00,53.8,39.2,29.97,ESE,109,3.1,3.1,58,0.00,,,-99.99,perl,2013-04-18 12:56:00,
2013-04-18 09:02:00,55.0,41.0,29.97,SE,128,0.0,0.0,59,0.00,,,-99.99,perl,2013-04-18 13:02:00,
2013-04-18 09:07:00,57.2,42.8,29.97,SE,139,2.7,5.8,58,0.00,,,-99.99,perl,2013-04-18 13:07:00,
2013-04-18 09:12:00,60.1,46.4,29.97,SE,145,4.6,7.6,61,0.00,,,-99.99,perl,2013-04-18 13:12:00,
2013-04-18 09:17:00,62.4,42.8,29.94,SSE,158,5.8,6.3,49,0.00,,,-99.99,perl,2013-04-18 13:17:00,
2013-04-18 09:22:00,63.0,42.8,29.94,SSE,155,4.5,6.3,47,0.00,,,-99.99,perl,2013-04-18 13:22:00,
2013-04-18 09:27:00,63.9,42.8,29.94,SSE,165,6.3,6.3,46,0.00,,,-99.99,perl,2013-04-18 13:27:00,
2013-04-18 09:32:00,64.6,42.8,29.94,SSE,157,4.9,10.1,45,0.00,,,-99.99,perl,2013-04-18 13:32:00,
2013-04-18 09:37:00,64.9,42.8,29.94,SSE,164,6.7,8.1,44,0.00,,,-99.99,perl,2013-04-18 13:37:00,
2013-04-18 09:42:00,65.7,42.8,29.94,SSE,167,5.8,7.2,43,0.00,,,-99.99,perl,2013-04-18 13:42:00,
2013-04-18 09:47:00,66.2,42.8,29.94,SE,143,5.1,7.6,42,0.00,,,-99.99,perl,2013-04-18 13:47:00,
2013-04-18 09:52:00,66.7,42.8,29.94,South,189,2.2,4.0,42,0.00,,,-99.99,perl,2013-04-18 13:52:00,
2013-04-18 09:57:00,66.7,42.8,29.94,SSE,167,6.0,7.6,42,0.00,,,-99.99,perl,2013-04-18 13:57:00,
2013-04-18 10:02:00,66.7,42.8,29.94,SSE,160,3.1,7.6,42,0.00,,,-99.99,perl,2013-04-18 14:02:00,
2013-04-18 10:07:00,66.7,42.8,29.94,SSW,200,4.9,5.8,42,0.00,,,-99.99,perl,2013-04-18 14:07:00,
2013-04-18 10:12:00,66.6,42.8,29.94,SSE,150,4.5,13.2,42,0.00,,,-99.99,perl,2013-04-18 14:12:00,
2013-04-18 10:17:00,66.6,44.6,29.94,SSE,158,7.2,7.6,45,0.00,,,-99.99,perl,2013-04-18 14:17:00,
2013-04-18 10:22:00,67.1,46.4,29.94,SW,229,4.4,5.8,48,0.00,,,-99.99,perl,2013-04-18 14:22:00,
2013-04-18 10:27:00,67.6,46.4,29.94,South,179,4.9,4.9,47,0.00,,,-99.99,perl,2013-04-18 14:27:00,
2013-04-18 10:33:00,67.6,44.6,29.94,South,176,5.8,8.1,44,0.00,,,-99.99,perl,2013-04-18 14:33:00,
2013-04-18 10:38:00,68.2,44.6,29.94,SE,146,6.3,6.7,43,0.00,,,-99.99,perl,2013-04-18 14:38:00,
2013-04-18 10:43:00,68.9,46.4,29.94,SE,137,4.7,4.7,45,0.00,,,-99.99,perl,2013-04-18 14:43:00,
2013-04-18 10:48:00,69.3,46.4,29.91,South,172,6.7,6.7,44,0.00,,,-99.99,perl,2013-04-18 14:48:00,
2013-04-18 10:53:00,69.8,46.4,29.91,South,179,5.8,7.6,43,0.00,,,-99.99,perl,2013-04-18 14:53:00,
2013-04-18 10:58:00,69.6,44.6,29.91,SSE,152,4.9,11.0,41,0.00,,,-99.99,perl,2013-04-18 14:58:00,
2013-04-18 11:04:00,69.6,46.4,29.91,SE,145,5.9,7.6,44,0.00,,,-99.99,perl,2013-04-18 15:04:00,
2013-04-18 11:09:00,69.8,46.4,29.91,SE,145,4.9,10.1,43,0.00,,,-99.99,perl,2013-04-18 15:09:00,
2013-04-18 11:14:00,69.8,46.4,29.91,SSE,155,5.5,8.1,43,0.00,,,-99.99,perl,2013-04-18 15:14:00,
2013-04-18 11:19:00,70.2,46.4,29.91,South,174,3.1,3.1,43,0.00,,,-99.99,perl,2013-04-18 15:19:00,
2013-04-18 11:25:00,70.5,44.6,29.91,SW,219,3.4,5.8,40,0.00,,,-99.99,perl,2013-04-18 15:25:00,
2013-04-18 11:30:00,70.9,48.2,29.91,South,175,4.0,7.6,45,0.00,,,-99.99,perl,2013-04-18 15:30:00,
2013-04-18 11:35:00,71.4,46.4,29.91,SSE,154,4.1,9.6,41,0.00,,,-99.99,perl,2013-04-18 15:35:00,
2013-04-18 11:40:00,71.2,46.4,29.91,South,189,5.8,5.8,41,0.00,,,-99.99,perl,2013-04-18 15:40:00,
2013-04-18 11:45:00,71.2,46.4,29.88,SSE,147,5.4,6.3,41,0.00,,,-99.99,perl,2013-04-18 15:45:00,
2013-04-18 11:50:00,71.4,48.2,29.88,SE,126,3.1,4.9,44,0.00,,,-99.99,perl,2013-04-18 15:50:00,
2013-04-18 11:55:00,72.3,46.4,29.88,South,187,3.6,6.3,40,0.00,,,-99.99,perl,2013-04-18 15:55:00,
2013-04-18 12:00:00,72.3,44.6,29.88,SSW,203,5.5,11.0,37,0.00,,,-99.99,perl,2013-04-18 16:00:00,
2013-04-18 12:05:00,72.1,44.6,29.88,SSW,208,4.0,5.8,37,0.00,,,-99.99,perl,2013-04-18 16:05:00,
2013-04-18 12:10:00,72.1,44.6,29.88,SSW,199,6.6,7.6,37,0.00,,,-99.99,perl,2013-04-18 16:10:00,
2013-04-18 12:15:00,72.5,48.2,29.88,South,172,2.2,5.8,42,0.00,,,-99.99,perl,2013-04-18 16:15:00,
2013-04-18 12:20:00,73.2,46.4,29.88,South,169,6.7,8.1,39,0.00,,,-99.99,perl,2013-04-18 16:20:00,
2013-04-18 12:25:00,73.2,46.4,29.88,SSE,159,6.3,10.5,39,0.00,,,-99.99,perl,2013-04-18 16:25:00,
2013-04-18 12:31:00,73.6,44.6,29.85,SSE,164,6.3,8.1,36,0.00,,,-99.99,perl,2013-04-18 16:31:00,
2013-04-18 12:36:00,73.4,46.4,29.85,SE,137,6.7,6.7,38,0.00,,,-99.99,perl,2013-04-18 16:36:00,
2013-04-18 12:41:00,73.6,46.4,29.85,SSE,159,6.7,8.1,38,0.00,,,-99.99,perl,2013-04-18 16:41:00,
2013-04-18 12:46:00,73.4,44.6,29.85,SSW,198,5.8,8.1,36,0.00,,,-99.99,perl,2013-04-18 16:46:00,
2013-04-18 12:51:00,72.9,44.6,29.85,SSW,207,4.9,10.5,36,0.00,,,-99.99,perl,2013-04-18 16:51:00,
2013-04-18 12:56:00,73.2,46.4,29.85,South,170,5.2,5.8,39,0.00,,,-99.99,perl,2013-04-18 16:56:00,
2013-04-18 13:01:00,73.9,44.6,29.85,SSE,161,6.3,12.8,35,0.00,,,-99.99,perl,2013-04-18 17:01:00,
2013-04-18 13:06:00,73.9,44.6,29.85,SSW,198,5.5,5.8,35,0.00,,,-99.99,perl,2013-04-18 17:06:00,
2013-04-18 13:11:00,74.1,44.6,29.85,SSE,148,8.1,11.9,35,0.00,,,-99.99,perl,2013-04-18 17:11:00,
2013-04-18 13:16:00,74.1,44.6,29.85,SW,230,4.9,8.3,35,0.00,,,-99.99,perl,2013-04-18 17:16:00,
2013-04-18 13:21:00,73.9,44.6,29.85,SSE,159,8.1,8.3,35,0.00,,,-99.99,perl,2013-04-18 17:21:00,
2013-04-18 13:26:00,74.1,44.6,29.85,SW,220,6.3,6.3,35,0.00,,,-99.99,perl,2013-04-18 17:26:00,
2013-04-18 13:31:00,74.8,46.4,29.85,SE,145,4.3,7.2,37,0.00,,,-99.99,perl,2013-04-18 17:31:00,
2013-04-18 13:36:00,75.4,44.6,29.85,South,183,3.1,10.1,33,0.00,,,-99.99,perl,2013-04-18 17:36:00,
2013-04-18 13:41:00,74.5,44.6,29.85,SSW,192,7.3,9.2,34,0.00,,,-99.99,perl,2013-04-18 17:41:00,
2013-04-18 13:46:00,74.7,46.4,29.82,SSE,149,4.0,5.4,37,0.00,,,-99.99,perl,2013-04-18 17:46:00,
2013-04-18 13:51:00,74.8,44.6,29.82,SSE,166,7.2,9.6,34,0.00,,,-99.99,perl,2013-04-18 17:51:00,
2013-04-18 13:56:00,75.9,44.6,29.82,South,173,6.7,6.7,33,0.00,,,-99.99,perl,2013-04-18 17:56:00,
2013-04-18 14:01:00,76.1,46.4,29.82,SW,221,4.5,7.6,35,0.00,,,-99.99,perl,2013-04-18 18:01:00,
2013-04-18 14:06:00,75.2,44.6,29.82,WSW,258,9.1,9.1,34,0.00,,,-99.99,perl,2013-04-18 18:06:00,
2013-04-18 14:11:00,75.9,44.6,29.82,SSW,193,4.9,6.3,33,0.00,,,-99.99,perl,2013-04-18 18:11:00,
2013-04-18 14:16:00,76.5,46.4,29.82,SSW,199,5.9,7.2,35,0.00,,,-99.99,perl,2013-04-18 18:16:00,
2013-04-18 14:21:00,76.6,44.6,29.82,SSE,158,5.8,8.1,32,0.00,,,-99.99,perl,2013-04-18 18:21:00,
2013-04-18 14:26:00,75.6,42.8,29.82,SSE,160,8.3,12.3,31,0.00,,,-99.99,perl,2013-04-18 18:26:00,
2013-04-18 14:31:00,76.1,44.6,29.79,SE,143,8.3,8.3,33,0.00,,,-99.99,perl,2013-04-18 18:31:00,
2013-04-18 14:36:00,75.6,42.8,29.79,SSE,156,8.7,11.4,31,0.00,,,-99.99,perl,2013-04-18 18:36:00,
2013-04-18 14:41:00,75.9,44.6,29.79,SSE,163,5.4,5.8,33,0.00,,,-99.99,perl,2013-04-18 18:41:00,
2013-04-18 14:46:00,76.5,44.6,29.79,South,188,5.8,8.1,32,0.00,,,-99.99,perl,2013-04-18 18:46:00,
2013-04-18 14:51:00,75.9,42.8,29.79,South,183,8.8,12.3,31,0.00,,,-99.99,perl,2013-04-18 18:51:00,
2013-04-18 14:56:00,76.3,44.6,29.79,South,188,6.3,7.2,32,0.00,,,-99.99,perl,2013-04-18 18:56:00,
2013-04-18 15:01:00,76.1,44.6,29.79,SSE,156,6.7,12.8,33,0.00,,,-99.99,perl,2013-04-18 19:01:00,
2013-04-18 15:06:00,76.3,44.6,29.79,SSE,159,6.3,6.3,32,0.00,,,-99.99,perl,2013-04-18 19:06:00,
2013-04-18 15:12:00,76.1,44.6,29.79,South,181,6.6,8.7,33,0.00,,,-99.99,perl,2013-04-18 19:12:00,
2013-04-18 15:17:00,77.4,44.6,29.79,SSE,162,4.0,8.1,31,0.00,,,-99.99,perl,2013-04-18 19:17:00,
2013-04-18 15:22:00,77.2,44.6,29.79,SSE,152,7.2,10.1,31,0.00,,,-99.99,perl,2013-04-18 19:22:00,
2013-04-18 15:27:00,76.5,44.6,29.79,SSE,157,8.7,15.4,32,0.00,,,-99.99,perl,2013-04-18 19:27:00,
2013-04-18 15:32:00,77.2,44.6,29.79,SE,143,4.9,7.6,31,0.00,,,-99.99,perl,2013-04-18 19:32:00,
2013-04-18 15:37:00,76.8,44.6,29.79,SSE,163,7.0,8.7,32,0.00,,,-99.99,perl,2013-04-18 19:37:00,
2013-04-18 15:42:00,76.5,44.6,29.79,SSE,153,7.2,8.1,32,0.00,,,-99.99,perl,2013-04-18 19:42:00,
2013-04-18 15:47:00,77.0,44.6,29.79,South,180,4.5,5.4,32,0.00,,,-99.99,perl,2013-04-18 19:47:00,
2013-04-18 15:52:00,77.0,44.6,29.79,SSE,154,8.1,14.1,32,0.00,,,-99.99,perl,2013-04-18 19:52:00,
2013-04-18 15:57:00,76.5,44.6,29.79,SSE,154,8.3,13.2,32,0.00,,,-99.99,perl,2013-04-18 19:57:00,
2013-04-18 16:03:00,76.8,44.6,29.76,SSE,168,4.5,5.8,32,0.00,,,-99.99,perl,2013-04-18 20:03:00,
2013-04-18 16:08:00,76.8,44.6,29.76,SSE,161,6.5,10.5,32,0.00,,,-99.99,perl,2013-04-18 20:08:00,
2013-04-18 16:13:00,76.6,44.6,29.76,South,175,4.0,6.3,32,0.00,,,-99.99,perl,2013-04-18 20:13:00,
2013-04-18 16:18:00,75.6,42.8,29.76,SE,131,7.2,10.5,31,0.00,,,-99.99,perl,2013-04-18 20:18:00,
2013-04-18 16:23:00,75.7,44.6,29.76,SSE,161,3.6,5.4,33,0.00,,,-99.99,perl,2013-04-18 20:23:00,
2013-04-18 16:28:00,75.9,42.8,29.76,SSE,154,6.7,8.1,31,0.00,,,-99.99,perl,2013-04-18 20:28:00,
2013-04-18 16:33:00,76.1,44.6,29.76,South,177,5.7,6.3,33,0.00,,,-99.99,perl,2013-04-18 20:33:00,
2013-04-18 16:38:00,76.1,44.6,29.76,SSE,157,8.1,12.3,33,0.00,,,-99.99,perl,2013-04-18 20:38:00,
2013-04-18 16:43:00,76.5,44.6,29.76,SW,230,5.3,8.1,32,0.00,,,-99.99,perl,2013-04-18 20:43:00,
2013-04-18 16:48:00,75.4,42.8,29.73,SSE,163,6.3,10.1,31,0.00,,,-99.99,perl,2013-04-18 20:48:00,
2013-04-18 16:53:00,75.2,42.8,29.73,SSW,200,7.2,7.2,31,0.00,,,-99.99,perl,2013-04-18 20:53:00,
2013-04-18 16:58:00,75.2,44.6,29.73,South,178,5.4,8.1,34,0.00,,,-99.99,perl,2013-04-18 20:58:00,
2013-04-18 17:03:00,75.4,42.8,29.73,South,180,4.5,6.3,31,0.00,,,-99.99,perl,2013-04-18 21:03:00,
2013-04-18 17:08:00,75.4,42.8,29.73,South,177,8.1,14.1,31,0.00,,,-99.99,perl,2013-04-18 21:08:00,
2013-04-18 17:13:00,75.0,44.6,29.73,South,183,5.8,5.8,34,0.00,,,-99.99,perl,2013-04-18 21:13:00,
2013-04-18 17:18:00,75.2,42.8,29.73,ESE,119,4.2,10.1,31,0.00,,,-99.99,perl,2013-04-18 21:18:00,
2013-04-18 17:24:00,74.3,44.6,29.73,South,191,8.1,8.1,35,0.00,,,-99.99,perl,2013-04-18 21:24:00,
2013-04-18 17:30:00,74.3,44.6,29.76,SSE,157,3.6,11.9,35,0.00,,,-99.99,perl,2013-04-18 21:30:00,
2013-04-18 17:35:00,73.9,42.8,29.76,SE,144,4.5,5.4,33,0.00,,,-99.99,perl,2013-04-18 21:35:00,
2013-04-18 17:40:00,74.1,42.8,29.76,SE,140,4.0,7.6,33,0.00,,,-99.99,perl,2013-04-18 21:40:00,
2013-04-18 17:45:00,73.8,42.8,29.73,South,191,7.6,8.3,33,0.00,,,-99.99,perl,2013-04-18 21:45:00,
2013-04-18 17:50:00,73.4,42.8,29.73,SSE,160,7.6,10.5,33,0.00,,,-99.99,perl,2013-04-18 21:50:00,
2013-04-18 17:55:00,73.0,44.6,29.73,South,173,9.2,9.2,36,0.00,,,-99.99,perl,2013-04-18 21:55:00,
2013-04-18 18:00:00,72.5,44.6,29.73,SSE,168,8.1,11.0,37,0.00,,,-99.99,perl,2013-04-18 22:00:00,
2013-04-18 18:05:00,72.1,44.6,29.73,SSE,159,8.1,9.2,37,0.00,,,-99.99,perl,2013-04-18 22:05:00,
2013-04-18 18:10:00,72.0,44.6,29.73,SSE,149,6.7,6.7,37,0.00,,,-99.99,perl,2013-04-18 22:10:00,
2013-04-18 18:15:00,71.6,44.6,29.73,South,169,8.3,10.5,38,0.00,,,-99.99,perl,2013-04-18 22:15:00,
2013-04-18 18:20:00,70.9,46.4,29.73,SSE,154,5.8,8.3,42,0.00,,,-99.99,perl,2013-04-18 22:20:00,
2013-04-18 18:25:00,70.7,46.4,29.73,SSE,161,8.1,8.3,42,0.00,,,-99.99,perl,2013-04-18 22:25:00,
2013-04-18 18:30:00,70.3,44.6,29.73,SSE,156,6.7,10.5,40,0.00,,,-99.99,perl,2013-04-18 22:30:00,
2013-04-18 18:35:00,70.2,46.4,29.73,SSE,163,7.2,7.2,43,0.00,,,-99.99,perl,2013-04-18 22:35:00,
2013-04-18 18:40:00,69.8,46.4,29.73,South,184,8.1,12.8,43,0.00,,,-99.99,perl,2013-04-18 22:40:00,
2013-04-18 18:46:00,69.3,46.4,29.73,SE,145,10.3,11.0,44,0.00,,,-99.99,perl,2013-04-18 22:46:00,
2013-04-18 18:51:00,68.9,46.4,29.73,South,174,7.2,10.1,45,0.00,,,-99.99,perl,2013-04-18 22:51:00,
2013-04-18 18:56:00,68.5,46.4,29.73,SE,144,7.8,11.0,45,0.00,,,-99.99,perl,2013-04-18 22:56:00,
2013-04-18 19:01:00,68.2,46.4,29.73,SSE,166,8.7,9.6,46,0.00,,,-99.99,perl,2013-04-18 23:01:00,
2013-04-18 19:06:00,68.0,46.4,29.73,SSE,147,7.2,8.7,46,0.00,,,-99.99,perl,2013-04-18 23:06:00,
2013-04-18 19:11:00,67.6,46.4,29.73,SE,143,8.1,9.2,47,0.00,,,-99.99,perl,2013-04-18 23:11:00,
2013-04-18 19:16:00,67.3,48.2,29.73,SSE,150,9.6,10.5,50,0.00,,,-99.99,perl,2013-04-18 23:16:00,
2013-04-18 19:21:00,67.1,48.2,29.73,SSE,152,8.1,10.1,51,0.00,,,-99.99,perl,2013-04-18 23:21:00,
2013-04-18 19:26:00,66.9,46.4,29.73,SE,145,9.2,15.4,48,0.00,,,-99.99,perl,2013-04-18 23:26:00,
2013-04-18 19:31:00,66.7,48.2,29.73,SSW,201,9.6,11.0,52,0.00,,,-99.99,perl,2013-04-18 23:31:00,
2013-04-18 19:37:00,66.6,48.2,29.73,SSE,160,6.3,10.5,52,0.00,,,-99.99,perl,2013-04-18 23:37:00,
2013-04-18 19:42:00,66.2,48.2,29.73,South,174,6.4,8.7,52,0.00,,,-99.99,perl,2013-04-18 23:42:00,
2013-04-18 19:47:00,66.2,50.0,29.73,SSE,156,8.1,10.5,56,0.00,,,-99.99,perl,2013-04-18 23:47:00,
2013-04-18 19:52:00,66.0,50.0,29.73,SSE,154,7.7,8.7,57,0.00,,,-99.99,perl,2013-04-18 23:52:00,
2013-04-18 19:57:00,65.8,50.0,29.73,South,177,6.7,8.1,57,0.00,,,-99.99,perl,2013-04-18 23:57:00,
2013-04-18 20:02:00,65.7,50.0,29.73,SSE,166,6.3,6.3,57,0.00,,,-99.99,perl,2013-04-19 00:02:00,
2013-04-18 20:08:00,65.5,51.8,29.73,SSW,212,7.2,7.2,61,0.00,,,-99.99,perl,2013-04-19 00:08:00,
2013-04-18 20:14:00,65.5,51.8,29.73,South,171,8.1,11.4,61,0.00,,,-99.99,perl,2013-04-19 00:14:00,
2013-04-18 20:19:00,65.5,51.8,29.73,South,175,8.3,12.8,61,0.00,,,-99.99,perl,2013-04-19 00:19:00,
2013-04-18 20:24:00,65.1,50.0,29.73,SSE,165,8.4,8.4,58,0.00,,,-99.99,perl,2013-04-19 00:24:00,
2013-04-18 20:29:00,64.9,51.8,29.73,SSE,166,5.4,14.1,62,0.00,,,-99.99,perl,2013-04-19 00:29:00,
2013-04-18 20:35:00,64.9,51.8,29.73,SSE,156,4.9,8.7,62,0.00,,,-99.99,perl,2013-04-19 00:35:00,
2013-04-18 20:40:00,64.9,51.8,29.73,South,173,8.7,14.5,62,0.00,,,-99.99,perl,2013-04-19 00:40:00,
2013-04-18 20:45:00,64.9,51.8,29.70,SSW,210,8.1,8.7,62,0.00,,,-99.99,perl,2013-04-19 00:45:00,
2013-04-18 20:50:00,64.9,51.8,29.70,South,186,7.6,7.6,62,0.00,,,-99.99,perl,2013-04-19 00:50:00,
2013-04-18 20:56:00,65.1,51.8,29.70,South,169,9.6,9.6,62,0.00,,,-99.99,perl,2013-04-19 00:56:00,
2013-04-18 21:01:00,65.1,51.8,29.70,South,180,5.8,7.6,62,0.00,,,-99.99,perl,2013-04-19 01:01:00,
2013-04-18 21:06:00,65.1,53.6,29.70,SSW,199,5.8,8.7,67,0.00,,,-99.99,perl,2013-04-19 01:06:00,
2013-04-18 21:11:00,65.1,53.6,29.70,SSE,160,4.9,8.1,67,0.00,,,-99.99,perl,2013-04-19 01:11:00,
2013-04-18 21:16:00,65.3,55.4,29.70,South,170,7.3,9.6,70,0.00,,,-99.99,perl,2013-04-19 01:16:00,
2013-04-18 21:22:00,65.3,55.4,29.70,SSE,163,4.9,6.7,70,0.00,,,-99.99,perl,2013-04-19 01:22:00,
2013-04-18 21:27:00,65.5,55.4,29.70,SSW,209,6.3,8.3,70,0.00,,,-99.99,perl,2013-04-19 01:27:00,
2013-04-18 21:34:00,65.3,55.4,29.70,SSE,149,5.5,11.0,70,0.00,,,-99.99,perl,2013-04-19 01:34:00,
2013-04-18 21:39:00,65.7,55.4,29.70,South,174,7.2,7.6,69,0.00,,,-99.99,perl,2013-04-19 01:39:00,
2013-04-18 21:44:00,65.8,53.6,29.70,SSE,157,5.4,11.0,65,0.00,,,-99.99,perl,2013-04-19 01:44:00,
2013-04-18 21:49:00,65.7,53.6,29.70,SSE,164,5.8,6.3,65,0.00,,,-99.99,perl,2013-04-19 01:49:00,
2013-04-18 21:54:00,66.0,53.6,29.70,South,177,6.3,7.6,65,0.00,,,-99.99,perl,2013-04-19 01:54:00,
2013-04-18 21:59:00,66.0,53.6,29.70,SSW,213,6.7,15.0,65,0.00,,,-99.99,perl,2013-04-19 01:59:00,
2013-04-18 22:04:00,66.0,53.6,29.70,SSE,166,6.3,6.3,65,0.00,,,-99.99,perl,2013-04-19 02:04:00,
2013-04-18 22:09:00,66.0,53.6,29.70,SSE,163,5.5,6.3,65,0.00,,,-99.99,perl,2013-04-19 02:09:00,
2013-04-18 22:14:00,66.4,53.6,29.70,South,178,8.1,8.1,63,0.00,,,-99.99,perl,2013-04-19 02:14:00,
2013-04-18 22:19:00,66.2,53.6,29.70,SSE,155,4.6,6.3,64,0.00,,,-99.99,perl,2013-04-19 02:19:00,
2013-04-18 22:24:00,66.6,53.6,29.70,South,181,8.1,8.1,63,0.00,,,-99.99,perl,2013-04-19 02:24:00,
2013-04-18 22:29:00,66.9,53.6,29.70,SE,145,9.2,10.1,63,0.00,,,-99.99,perl,2013-04-19 02:29:00,
2013-04-18 22:34:00,66.7,53.6,29.70,SSE,156,7.2,8.3,63,0.00,,,-99.99,perl,2013-04-19 02:34:00,
2013-04-18 22:39:00,66.7,53.6,29.70,SSE,158,6.7,8.7,63,0.00,,,-99.99,perl,2013-04-19 02:39:00,
2013-04-18 22:44:00,66.9,53.6,29.70,SSE,167,6.4,8.3,63,0.00,,,-99.99,perl,2013-04-19 02:44:00,
2013-04-18 22:49:00,67.1,53.6,29.70,SSE,155,7.6,8.3,62,0.00,,,-99.99,perl,2013-04-19 02:49:00,
2013-04-18 22:54:00,67.3,53.6,29.70,SSE,154,7.5,15.0,62,0.00,,,-99.99,perl,2013-04-19 02:54:00,
2013-04-18 22:59:00,67.5,53.6,29.70,South,174,6.7,10.5,61,0.00,,,-99.99,perl,2013-04-19 02:59:00,
2013-04-18 23:05:00,67.3,53.6,29.67,South,169,7.5,12.8,62,0.00,,,-99.99,perl,2013-04-19 03:05:00,
2013-04-18 23:10:00,67.3,53.6,29.67,SSE,160,5.8,8.1,62,0.00,,,-99.99,perl,2013-04-19 03:10:00,
2013-04-18 23:15:00,67.3,53.6,29.67,SSE,150,7.0,8.3,62,0.00,,,-99.99,perl,2013-04-19 03:15:00,
2013-04-18 23:20:00,67.8,53.6,29.67,South,186,8.1,15.4,61,0.00,,,-99.99,perl,2013-04-19 03:20:00,
2013-04-18 23:25:00,67.6,53.6,29.67,South,186,4.9,5.4,61,0.00,,,-99.99,perl,2013-04-19 03:25:00,
2013-04-18 23:30:00,67.6,53.6,29.67,SSE,165,7.2,8.3,61,0.00,,,-99.99,perl,2013-04-19 03:30:00,
2013-04-18 23:35:00,67.6,53.6,29.67,SE,142,6.3,8.7,61,0.00,,,-99.99,perl,2013-04-19 03:35:00,
2013-04-18 23:40:00,67.8,53.6,29.67,South,172,8.2,8.3,61,0.00,,,-99.99,perl,2013-04-19 03:40:00,
2013-04-18 23:45:00,67.6,53.6,29.67,SSE,167,5.4,10.5,61,0.00,,,-99.99,perl,2013-04-19 03:45:00,
2013-04-18 23:50:00,67.8,53.6,29.67,South,171,6.3,8.7,61,0.00,,,-99.99,perl,2013-04-19 03:50:00,
2013-04-18 23:55:00,67.8,53.6,29.67,South,169,6.3,8.7,61,0.00,,,-99.99,perl,2013-04-19 03:55:00,